createdAt,value
2023-03-17T06:02:47.436Z,2.75
2023-03-17T06:05:17.683Z,2.60
2023-03-17T06:07:56.497Z,3.10
2023-03-17T06:10:27.867Z,2.80
2023-03-17T06:13:05.264Z,3.22
2023-03-17T06:15:36.978Z,2.92
2023-03-17T06:18:16.305Z,3.05
2023-03-17T06:20:46.738Z,3.05
2023-03-17T06:23:23.315Z,3.22
2023-03-17T06:25:53.587Z,3.03
2023-03-17T06:28:30.352Z,3.10
2023-03-17T06:31:01.068Z,2.75
2023-03-17T06:33:41.249Z,3.00
2023-03-17T06:36:18.296Z,2.78
2023-03-17T06:38:48.859Z,3.05
2023-03-17T06:41:25.337Z,3.00
2023-03-17T06:43:55.745Z,3.10
2023-03-17T06:46:32.351Z,3.10
2023-03-17T06:49:08.037Z,2.78
2023-03-17T06:51:45.321Z,2.95
2023-03-17T06:54:15.351Z,2.60
2023-03-17T06:56:52.331Z,2.80
2023-03-17T06:59:29.333Z,3.10
2023-03-17T07:01:59.509Z,3.10
2023-03-17T07:04:39.408Z,2.90
2023-03-17T07:07:16.363Z,2.75
2023-03-17T07:09:46.999Z,2.83
2023-03-17T07:12:24.481Z,2.90
2023-03-17T07:14:54.588Z,3.13
2023-03-17T07:17:31.363Z,2.97
2023-03-17T07:20:10.339Z,3.22
2023-03-17T07:22:40.425Z,3.25
2023-03-17T07:25:19.411Z,3.10
2023-03-17T07:27:49.495Z,3.05
2023-03-17T07:30:26.358Z,3.22
2023-03-17T07:32:56.490Z,3.30
2023-03-17T07:35:37.458Z,2.92
2023-03-17T07:38:07.990Z,3.03
2023-03-17T07:40:45.399Z,3.08
2023-03-17T07:43:16.207Z,3.08
2023-03-17T07:45:53.493Z,3.03
2023-03-17T07:48:30.379Z,3.38
2023-03-17T07:51:03.203Z,3.28
2023-03-17T07:53:40.492Z,2.88
2023-03-17T07:56:11.945Z,2.80
2023-03-17T07:58:48.654Z,2.80
2023-03-17T08:01:18.840Z,3.30
2023-03-17T08:03:55.463Z,3.15
2023-03-17T08:06:28.396Z,2.85
2023-03-17T08:09:06.501Z,3.30
2023-03-17T08:11:36.915Z,3.10
2023-03-17T08:14:13.405Z,3.40
2023-03-17T08:16:43.683Z,3.33
2023-03-17T08:19:21.520Z,3.15
2023-03-17T08:21:56.465Z,3.33
2023-03-17T08:24:33.511Z,3.30
2023-03-17T08:27:04.207Z,3.20
2023-03-17T08:29:40.450Z,3.25
2023-03-17T08:32:12.127Z,3.50
2023-03-17T08:34:51.475Z,3.28
2023-03-17T08:37:31.489Z,3.45
2023-03-17T08:40:01.646Z,3.70
2023-03-17T08:42:38.589Z,3.60
2023-03-17T08:45:11.360Z,3.72
2023-03-17T08:47:49.548Z,3.58
2023-03-17T08:50:22.772Z,3.42
2023-03-17T08:53:02.508Z,3.35
2023-03-17T08:55:32.955Z,3.25
2023-03-17T08:58:11.480Z,3.20
2023-03-17T09:00:41.638Z,3.40
2023-03-17T09:03:18.532Z,3.95
2023-03-17T09:05:48.767Z,3.55
2023-03-17T09:08:28.522Z,3.13
2023-03-17T09:11:05.516Z,3.80
2023-03-17T09:13:37.931Z,3.45
2023-03-17T09:16:15.522Z,3.72
2023-03-17T09:18:46.533Z,3.75
2023-03-17T09:21:24.639Z,4.00
2023-03-17T09:23:57.603Z,3.63
2023-03-17T09:26:35.583Z,3.60
2023-03-17T09:29:05.838Z,3.50
2023-03-17T09:31:44.525Z,3.80
2023-03-17T09:34:14.600Z,3.38
2023-03-17T09:36:51.546Z,3.80
2023-03-17T09:39:25.783Z,4.20
2023-03-17T09:42:33.529Z,3.95
2023-03-17T09:45:15.092Z,3.80
2023-03-17T09:48:26.675Z,3.60
2023-03-17T09:51:00.577Z,4.20
2023-03-17T09:53:41.780Z,4.00
2023-03-17T09:56:18.846Z,4.40
2023-03-17T09:59:01.645Z,3.60
2023-03-17T10:01:38.571Z,4.22
2023-03-17T10:04:08.965Z,4.00
2023-03-17T10:06:50.596Z,3.65
2023-03-17T10:09:29.942Z,4.10
2023-03-17T10:12:19.567Z,4.00
2023-03-17T10:15:08.607Z,4.20
2023-03-17T10:17:49.691Z,4.47
2023-03-17T10:20:26.447Z,4.40
2023-03-17T10:23:06.632Z,4.28
2023-03-17T10:25:39.565Z,4.43
2023-03-17T10:28:34.663Z,4.45
2023-03-17T10:31:17.463Z,4.30
2023-03-17T10:33:58.905Z,4.65
2023-03-17T10:36:48.599Z,4.38
2023-03-17T10:39:23.731Z,5.30
2023-03-17T10:42:06.870Z,4.97
2023-03-17T10:44:51.578Z,4.63
2023-03-17T10:47:38.651Z,4.90
2023-03-17T10:50:25.409Z,4.75
2023-03-17T10:53:08.652Z,5.00
2023-03-17T10:55:45.228Z,4.35
2023-03-17T10:58:26.743Z,4.93
2023-03-17T11:01:05.932Z,4.90
2023-03-17T11:03:48.806Z,4.93
2023-03-17T11:06:22.588Z,5.22
2023-03-17T11:09:02.770Z,5.28
2023-03-17T11:11:35.519Z,5.55
2023-03-17T11:14:13.731Z,6.13
2023-03-17T11:16:57.112Z,5.68
2023-03-17T11:19:48.654Z,5.45
2023-03-17T11:22:27.205Z,5.00
2023-03-17T11:25:13.669Z,5.60
2023-03-17T11:27:52.211Z,5.78
2023-03-17T11:30:40.676Z,5.43
2023-03-17T11:33:31.295Z,5.20
2023-03-17T11:36:13.719Z,5.97
2023-03-17T11:39:01.752Z,5.50
2023-03-17T11:41:58.651Z,5.82
2023-03-17T11:45:23.712Z,5.50
2023-03-17T11:48:24.829Z,6.05
2023-03-17T11:51:08.697Z,6.03
2023-03-17T11:54:05.895Z,5.55
2023-03-17T11:56:50.868Z,6.18
2023-03-17T11:59:31.606Z,5.85
2023-03-17T12:02:24.740Z,6.00
2023-03-17T12:05:05.079Z,5.90
2023-03-17T12:07:47.751Z,6.32
2023-03-17T12:10:25.716Z,6.50
2023-03-17T12:13:06.778Z,6.40
2023-03-17T12:15:43.552Z,6.32
2023-03-17T12:18:26.810Z,6.80
2023-03-17T12:21:04.572Z,6.20
2023-03-17T12:23:46.889Z,6.10
2023-03-17T12:26:20.863Z,6.30
2023-03-17T12:29:04.907Z,6.90
2023-03-17T12:31:39.466Z,6.13
2023-03-17T12:34:24.815Z,6.30
2023-03-17T12:36:58.275Z,5.93
2023-03-17T12:39:41.796Z,6.35
2023-03-17T12:42:30.251Z,6.35
2023-03-17T12:45:38.837Z,6.35
2023-03-17T12:48:44.070Z,6.38
2023-03-17T12:51:52.809Z,7.20
2023-03-17T12:54:31.814Z,6.25
2023-03-17T12:57:15.779Z,6.85
2023-03-17T12:59:54.811Z,6.60
2023-03-17T13:02:41.027Z,7.25
2023-03-17T13:05:23.861Z,6.97
2023-03-17T13:07:58.249Z,6.78
2023-03-17T13:10:54.835Z,5.97
2023-03-17T13:13:49.641Z,6.85
2023-03-17T13:16:42.839Z,6.57
2023-03-17T13:19:30.895Z,7.18
2023-03-17T13:22:37.254Z,6.60
2023-03-17T13:25:41.878Z,6.50
2023-03-17T13:28:35.884Z,6.65
2023-03-17T13:31:18.043Z,6.47
2023-03-17T13:33:58.840Z,7.25
2023-03-17T13:36:57.878Z,7.57
2023-03-17T13:40:26.845Z,6.85
2023-03-17T13:43:21.842Z,7.03
2023-03-17T13:45:55.242Z,7.00
2023-03-17T13:48:42.899Z,6.45
2023-03-17T13:51:29.913Z,6.90
2023-03-17T13:54:15.887Z,6.57
2023-03-17T13:56:55.807Z,7.03
2023-03-17T13:59:43.917Z,6.80
